createdAt,value
2019-03-23T00:00:11.283Z,24.23
2019-03-23T00:02:42.062Z,22.95
2019-03-23T00:05:12.392Z,25.48
2019-03-23T00:07:41.538Z,25.70
2019-03-23T00:10:10.737Z,22.58
2019-03-23T00:12:39.973Z,26.10
2019-03-23T00:15:10.648Z,23.65
2019-03-23T00:17:39.842Z,22.60
2019-03-23T00:20:09.010Z,23.35
2019-03-23T00:22:38.190Z,25.00
2019-03-23T00:25:07.343Z,24.43
2019-03-23T00:27:37.590Z,23.80
2019-03-23T00:30:08.290Z,23.45
2019-03-23T00:32:37.455Z,22.00
2019-03-23T00:35:06.808Z,21.10
2019-03-23T00:37:36.807Z,22.55
2019-03-23T00:40:09.531Z,21.87
2019-03-23T00:42:38.738Z,22.55
2019-03-23T00:45:08.890Z,19.60
2019-03-23T00:47:38.083Z,21.30
2019-03-23T00:50:08.183Z,19.92
2019-03-23T00:52:37.336Z,19.75
2019-03-23T00:55:07.050Z,22.93
2019-03-23T00:57:36.216Z,22.40
2019-03-23T01:00:10.664Z,21.10
2019-03-23T01:02:41.695Z,23.52
2019-03-23T01:05:10.805Z,20.37
2019-03-23T01:07:39.995Z,19.95
2019-03-23T01:10:10.604Z,22.87
2019-03-23T01:12:39.764Z,23.92
2019-03-23T01:15:11.527Z,21.25
2019-03-23T01:17:40.688Z,23.07
2019-03-23T01:20:11.208Z,23.55
2019-03-23T01:22:40.440Z,24.37
2019-03-23T01:25:10.353Z,25.77
2019-03-23T01:27:39.529Z,19.85
2019-03-23T01:30:13.750Z,21.80
2019-03-23T01:32:42.987Z,21.60
2019-03-23T01:35:12.214Z,22.22
2019-03-23T01:37:41.429Z,19.17
2019-03-23T01:40:10.592Z,19.37
2019-03-23T01:42:39.775Z,24.47
2019-03-23T01:45:11.784Z,25.68
2019-03-23T01:47:41.019Z,22.02
2019-03-23T01:50:11.295Z,22.37
2019-03-23T01:52:40.487Z,21.97
2019-03-23T01:55:10.723Z,23.20
2019-03-23T01:57:39.899Z,22.32
2019-03-23T02:00:11.199Z,22.00
2019-03-23T02:02:40.390Z,21.68
2019-03-23T02:05:09.543Z,21.62
2019-03-23T02:07:38.727Z,22.35
2019-03-23T02:10:10.087Z,21.95
2019-03-23T02:12:39.352Z,19.55
2019-03-23T02:15:10.233Z,20.82
2019-03-23T02:17:40.390Z,21.33
2019-03-23T02:20:11.423Z,21.25
2019-03-23T02:22:40.666Z,21.45
2019-03-23T02:25:09.815Z,22.00
2019-03-23T02:27:38.965Z,19.67
2019-03-23T02:30:10.283Z,21.87
2019-03-23T02:32:39.552Z,20.05
2019-03-23T02:35:08.942Z,24.70
2019-03-23T02:37:38.345Z,21.15
2019-03-23T02:40:10.257Z,21.62
2019-03-23T02:42:39.424Z,20.70
2019-03-23T02:45:10.290Z,23.22
2019-03-23T02:47:39.513Z,21.70
2019-03-23T02:50:09.760Z,22.62
2019-03-23T02:52:38.983Z,19.32
2019-03-23T02:55:09.330Z,18.73
2019-03-23T02:57:38.565Z,20.32
2019-03-23T03:00:15.094Z,22.67
2019-03-23T03:02:44.445Z,19.32
2019-03-23T03:05:13.635Z,20.95
2019-03-23T03:07:43.813Z,19.87
2019-03-23T03:10:22.346Z,21.12
2019-03-23T03:12:51.505Z,22.35
2019-03-23T03:15:20.710Z,17.15
2019-03-23T03:17:49.897Z,20.37
2019-03-23T03:20:19.136Z,23.20
2019-03-23T03:22:48.333Z,21.15
2019-03-23T03:25:17.537Z,19.32
2019-03-23T03:27:46.973Z,21.35
2019-03-23T03:30:16.129Z,17.90
2019-03-23T03:32:45.347Z,18.60
2019-03-23T03:35:14.562Z,19.87
2019-03-23T03:37:56.024Z,21.40
2019-03-23T03:40:14.671Z,19.87
2019-03-23T03:42:43.885Z,22.55
2019-03-23T03:45:18.881Z,21.52
2019-03-23T03:47:48.033Z,21.33
2019-03-23T03:50:17.230Z,20.45
2019-03-23T03:52:46.396Z,18.73
2019-03-23T03:55:15.556Z,20.62
2019-03-23T03:57:45.855Z,21.97
2019-03-23T04:00:15.035Z,21.37
2019-03-23T04:02:44.214Z,19.62
2019-03-23T04:05:14.471Z,22.10
2019-03-23T04:07:43.704Z,23.42
2019-03-23T04:10:12.970Z,20.23
2019-03-23T04:12:42.180Z,21.12
2019-03-23T04:15:11.348Z,19.10
2019-03-23T04:17:40.614Z,21.15
2019-03-23T04:20:11.311Z,22.75
2019-03-23T04:22:40.486Z,20.30
2019-03-23T04:25:10.520Z,21.95
2019-03-23T04:27:39.721Z,21.37
2019-03-23T04:30:10.573Z,22.17
2019-03-23T04:32:40.956Z,21.30
2019-03-23T04:35:10.123Z,24.87
2019-03-23T04:37:39.451Z,22.13
2019-03-23T04:40:10.656Z,19.37
2019-03-23T04:42:39.913Z,23.38
2019-03-23T04:45:10.016Z,21.73
2019-03-23T04:47:40.167Z,22.50
2019-03-23T04:50:10.667Z,20.68
2019-03-23T04:52:39.851Z,19.98
2019-03-23T04:55:12.616Z,25.72
2019-03-23T04:57:41.882Z,22.00
2019-03-23T05:00:18.728Z,22.67
2019-03-23T05:02:47.903Z,20.05
2019-03-23T05:05:18.212Z,25.12
2019-03-23T05:07:47.461Z,22.52
2019-03-23T05:10:17.317Z,20.52
2019-03-23T05:12:46.607Z,22.90
2019-03-23T05:15:16.487Z,20.68
2019-03-23T05:17:45.752Z,21.87
2019-03-23T05:20:31.734Z,22.30
2019-03-23T05:23:00.987Z,22.30
2019-03-23T05:25:30.314Z,21.07
2019-03-23T05:27:59.494Z,20.30
2019-03-23T05:30:28.674Z,19.02
2019-03-23T05:32:57.911Z,18.92
2019-03-23T05:35:27.107Z,22.52
2019-03-23T05:37:56.264Z,21.50
2019-03-23T05:40:25.528Z,19.32
2019-03-23T05:42:54.748Z,21.85
2019-03-23T05:45:24.199Z,19.20
2019-03-23T05:47:53.361Z,22.73
2019-03-23T05:50:22.576Z,21.35
2019-03-23T05:52:51.733Z,21.42
2019-03-23T05:55:20.917Z,19.67
2019-03-23T05:57:50.085Z,17.30
2019-03-23T06:00:20.353Z,23.52
2019-03-23T06:02:49.527Z,18.07
2019-03-23T06:05:18.677Z,20.40
2019-03-23T06:07:47.899Z,18.92
2019-03-23T06:10:18.123Z,17.67
2019-03-23T06:12:47.325Z,21.20
2019-03-23T06:15:16.497Z,19.17
2019-03-23T06:17:45.728Z,18.62
2019-03-23T06:20:14.897Z,19.45
2019-03-23T06:22:44.120Z,17.80
2019-03-23T06:25:13.315Z,19.77
2019-03-23T06:27:42.485Z,18.67
2019-03-23T06:30:11.816Z,22.22
2019-03-23T06:32:40.962Z,20.25
2019-03-23T06:35:10.225Z,20.43
2019-03-23T06:37:39.478Z,20.20
2019-03-23T06:40:10.188Z,18.52
2019-03-23T06:42:40.422Z,15.40
2019-03-23T06:45:10.855Z,17.82
2019-03-23T06:47:40.012Z,20.90
2019-03-23T06:50:10.319Z,16.80
2019-03-23T06:52:39.543Z,16.75
2019-03-23T06:55:09.121Z,17.90
2019-03-23T06:57:38.389Z,18.02
2019-03-23T07:00:13.289Z,16.90
2019-03-23T07:02:42.482Z,18.67
2019-03-23T07:05:11.639Z,16.73
2019-03-23T07:07:40.936Z,15.05
2019-03-23T07:10:11.836Z,19.67
2019-03-23T07:12:41.093Z,17.87
2019-03-23T07:15:19.434Z,16.80
2019-03-23T07:17:42.273Z,17.48
2019-03-23T07:20:12.973Z,15.08
2019-03-23T07:22:44.187Z,16.48
2019-03-23T07:25:13.085Z,18.23
2019-03-23T07:27:42.259Z,14.20
2019-03-23T07:30:13.758Z,17.45
2019-03-23T07:32:43.017Z,15.08
2019-03-23T07:35:12.237Z,14.65
2019-03-23T07:37:41.688Z,16.70
2019-03-23T07:40:12.052Z,16.02
2019-03-23T07:42:41.450Z,15.10
2019-03-23T07:45:13.944Z,14.33
2019-03-23T07:47:43.238Z,14.70
2019-03-23T07:50:14.500Z,13.65
2019-03-23T07:52:43.738Z,13.55
2019-03-23T07:55:16.190Z,15.98
2019-03-23T07:57:45.373Z,13.00
2019-03-23T08:00:20.654Z,16.02
2019-03-23T08:02:49.924Z,13.35
2019-03-23T08:05:19.144Z,17.92
2019-03-23T08:07:48.310Z,16.55
2019-03-23T08:10:23.623Z,15.50
2019-03-23T08:12:52.850Z,16.23
2019-03-23T08:15:22.041Z,17.37
2019-03-23T08:17:51.201Z,20.08
2019-03-23T08:20:20.450Z,15.53
2019-03-23T08:22:49.712Z,21.85
2019-03-23T08:25:18.893Z,18.48
2019-03-23T08:27:48.071Z,18.60
2019-03-23T08:30:17.618Z,21.02
2019-03-23T08:32:46.843Z,19.85
2019-03-23T08:35:16.048Z,19.35
2019-03-23T08:37:45.201Z,21.62
2019-03-23T08:40:14.397Z,22.10
2019-03-23T08:42:43.577Z,20.80
2019-03-23T08:45:12.763Z,23.20
2019-03-23T08:47:41.997Z,23.67
2019-03-23T08:50:11.213Z,23.20
2019-03-23T08:52:40.423Z,22.82
2019-03-23T08:55:09.664Z,24.65
2019-03-23T08:57:41.263Z,25.57
2019-03-23T09:00:11.893Z,26.95
2019-03-23T09:02:41.137Z,24.60
2019-03-23T09:05:10.300Z,26.48
2019-03-23T09:07:39.495Z,25.05
2019-03-23T09:10:09.133Z,29.52
2019-03-23T09:12:38.325Z,28.45
2019-03-23T09:15:08.954Z,24.30
2019-03-23T09:17:38.166Z,30.37
2019-03-23T09:20:09.674Z,27.55
2019-03-23T09:22:38.901Z,25.57
2019-03-23T09:25:08.084Z,26.42
2019-03-23T09:27:37.364Z,26.33
2019-03-23T09:30:11.483Z,29.18
2019-03-23T09:32:40.643Z,26.60
2019-03-23T09:35:10.902Z,29.27
2019-03-23T09:37:40.052Z,25.60
2019-03-23T09:40:11.092Z,24.40
2019-03-23T09:42:40.371Z,25.27
2019-03-23T09:45:09.562Z,27.25
2019-03-23T09:47:38.804Z,28.92
2019-03-23T09:50:09.935Z,30.35
2019-03-23T09:52:39.175Z,30.43
2019-03-23T09:55:08.372Z,28.57
2019-03-23T09:57:37.554Z,26.97
2019-03-23T10:00:11.458Z,27.32
2019-03-23T10:02:40.627Z,31.60
2019-03-23T10:05:09.996Z,30.27
2019-03-23T10:07:39.658Z,30.48
2019-03-23T10:10:08.887Z,33.08
2019-03-23T10:12:38.104Z,31.20
2019-03-23T10:15:07.672Z,31.97
2019-03-23T10:17:37.087Z,31.00
2019-03-23T10:20:06.837Z,31.80
2019-03-23T10:22:37.683Z,30.85
2019-03-23T10:25:06.865Z,33.80
2019-03-23T10:27:36.041Z,32.95
2019-03-23T10:30:07.670Z,32.40
2019-03-23T10:32:36.957Z,35.90
2019-03-23T10:35:08.145Z,33.95
2019-03-23T10:37:37.378Z,33.50
2019-03-23T10:40:07.895Z,32.48
2019-03-23T10:42:37.138Z,36.68
2019-03-23T10:45:08.206Z,33.75
2019-03-23T10:47:37.603Z,34.92
2019-03-23T10:50:07.081Z,33.80
2019-03-23T10:52:37.914Z,36.45
2019-03-23T10:55:07.137Z,35.90
2019-03-23T10:57:36.314Z,32.30
2019-03-23T11:00:08.074Z,31.62
2019-03-23T11:05:07.626Z,33.23
2019-03-23T11:07:36.803Z,35.52
2019-03-23T11:10:13.685Z,34.08
2019-03-23T11:12:43.002Z,35.70
2019-03-23T11:15:12.186Z,35.15
2019-03-23T11:17:41.520Z,31.85
2019-03-23T11:20:12.234Z,30.37
2019-03-23T11:22:41.398Z,32.05
2019-03-23T11:25:10.587Z,31.73
2019-03-23T11:27:39.753Z,31.97
2019-03-23T11:30:11.755Z,30.65
2019-03-23T11:32:40.979Z,31.77
2019-03-23T11:35:10.226Z,32.80
2019-03-23T11:37:39.882Z,33.13
2019-03-23T11:40:10.574Z,29.45
2019-03-23T11:42:49.377Z,28.60
2019-03-23T11:45:11.197Z,28.70
2019-03-23T11:47:40.362Z,29.82
2019-03-23T11:50:11.502Z,45.30
2019-03-23T11:52:40.676Z,42.78
2019-03-23T11:55:10.667Z,39.65
2019-03-23T11:57:39.897Z,32.85
2019-03-23T12:00:12.181Z,30.85
2019-03-23T12:02:41.335Z,31.05
2019-03-23T12:05:10.609Z,33.70
2019-03-23T12:07:39.772Z,31.15
2019-03-23T12:10:11.192Z,36.40
2019-03-23T12:12:41.461Z,35.92
2019-03-23T12:15:11.989Z,33.15
2019-03-23T12:17:41.156Z,37.40
2019-03-23T12:20:10.638Z,37.45
2019-03-23T12:22:39.915Z,32.80
2019-03-23T12:25:09.348Z,47.75
2019-03-23T12:27:38.596Z,31.33
2019-03-23T12:30:11.182Z,37.40
2019-03-23T12:32:40.357Z,29.92
2019-03-23T12:35:09.508Z,30.40
2019-03-23T12:37:38.735Z,35.43
2019-03-23T12:40:08.675Z,37.93
2019-03-23T12:42:37.855Z,37.15
2019-03-23T12:45:07.750Z,36.40
2019-03-23T12:47:36.942Z,35.38
2019-03-23T12:50:07.243Z,36.45
2019-03-23T12:52:36.425Z,36.00
2019-03-23T12:55:07.160Z,34.20
2019-03-23T12:57:36.434Z,37.15
2019-03-23T13:00:08.603Z,35.33
2019-03-23T13:02:37.778Z,36.33
2019-03-23T13:05:13.248Z,35.35
2019-03-23T13:07:43.024Z,37.90
2019-03-23T13:10:13.166Z,49.70
2019-03-23T13:12:42.419Z,37.60
2019-03-23T13:15:13.514Z,40.78
2019-03-23T13:17:43.813Z,37.25
2019-03-23T13:20:13.559Z,35.15
2019-03-23T13:22:43.959Z,37.17
2019-03-23T13:25:13.123Z,35.70
2019-03-23T13:27:42.404Z,34.10
2019-03-23T13:30:17.885Z,36.08
2019-03-23T13:32:47.081Z,34.10
2019-03-23T13:35:16.238Z,36.17
2019-03-23T13:37:45.483Z,35.60
2019-03-23T13:40:14.658Z,34.92
2019-03-23T13:42:43.834Z,35.43
2019-03-23T13:45:13.140Z,37.98
2019-03-23T13:47:42.391Z,34.33
2019-03-23T13:50:11.647Z,36.03
2019-03-23T13:52:40.870Z,45.50
2019-03-23T13:55:13.331Z,40.73
2019-03-23T13:57:42.558Z,45.30
2019-03-23T14:00:11.749Z,40.28
2019-03-23T14:02:40.983Z,43.33
2019-03-23T14:05:16.144Z,58.58
2019-03-23T14:07:42.060Z,51.18
2019-03-23T14:10:11.300Z,40.20
2019-03-23T14:12:40.546Z,36.33
2019-03-23T14:15:09.746Z,37.48
2019-03-23T14:17:38.982Z,39.67
2019-03-23T14:20:08.212Z,36.98
2019-03-23T14:22:37.412Z,38.30
2019-03-23T14:25:06.855Z,39.67
2019-03-23T14:27:36.051Z,36.68
2019-03-23T14:30:07.556Z,36.53
2019-03-23T14:32:36.740Z,37.90
2019-03-23T14:35:06.268Z,35.17
2019-03-23T14:37:35.547Z,35.88
2019-03-23T14:40:06.324Z,35.50
2019-03-23T14:42:36.033Z,36.05
2019-03-23T14:45:07.931Z,34.20
2019-03-23T14:47:37.149Z,37.65
2019-03-23T14:50:06.468Z,34.03
2019-03-23T14:52:35.617Z,36.88
2019-03-23T14:55:05.940Z,36.13
2019-03-23T14:57:35.110Z,36.25
2019-03-23T15:00:06.986Z,35.85
2019-03-23T15:02:36.215Z,36.40
2019-03-23T15:05:07.034Z,37.05
2019-03-23T15:07:37.358Z,39.63
2019-03-23T15:10:09.250Z,39.20
2019-03-23T15:12:38.417Z,36.75
2019-03-23T15:15:07.912Z,37.50
2019-03-23T15:17:37.077Z,41.85
2019-03-23T15:20:06.597Z,39.50
2019-03-23T15:22:35.757Z,36.98
2019-03-23T15:25:05.956Z,37.38
2019-03-23T15:27:35.158Z,40.03
2019-03-23T15:30:08.599Z,39.73
2019-03-23T15:32:37.832Z,41.18
2019-03-23T15:35:07.263Z,36.98
2019-03-23T15:37:36.446Z,35.90
2019-03-23T15:40:06.964Z,36.85
2019-03-23T15:42:36.224Z,38.90
2019-03-23T15:45:08.255Z,45.48
2019-03-23T15:47:37.497Z,40.88
2019-03-23T15:50:07.011Z,43.73
2019-03-23T15:52:36.205Z,46.63
2019-03-23T15:55:08.196Z,46.48
2019-03-23T15:57:37.450Z,46.58
2019-03-23T16:00:09.018Z,43.13
2019-03-23T16:02:38.323Z,45.92
2019-03-23T16:05:08.623Z,49.90
2019-03-23T16:07:38.030Z,48.23
2019-03-23T16:10:07.803Z,50.65
2019-03-23T16:12:38.200Z,48.13
2019-03-23T16:15:09.855Z,52.73
2019-03-23T16:17:39.045Z,50.50
2019-03-23T16:20:12.039Z,46.13
2019-03-23T16:22:41.418Z,51.88
2019-03-23T16:25:10.673Z,56.40
2019-03-23T16:27:39.947Z,50.23
2019-03-23T16:30:10.768Z,60.10
2019-03-23T16:32:40.145Z,53.42
2019-03-23T16:35:10.963Z,58.78
2019-03-23T16:37:40.141Z,49.53
2019-03-23T16:40:09.417Z,49.10
2019-03-23T16:42:45.286Z,52.17
2019-03-23T16:45:09.777Z,51.68
2019-03-23T16:47:39.005Z,52.43
2019-03-23T16:50:08.257Z,50.25
2019-03-23T16:52:38.171Z,50.95
2019-03-23T16:55:08.498Z,49.75
2019-03-23T16:57:37.690Z,48.17
2019-03-23T17:00:09.511Z,47.27
2019-03-23T17:02:38.739Z,50.03
2019-03-23T17:05:08.072Z,49.42
2019-03-23T17:07:37.263Z,49.95
2019-03-23T17:10:07.327Z,48.20
2019-03-23T17:12:36.606Z,45.20
2019-03-23T17:15:07.335Z,55.30
2019-03-23T17:17:37.484Z,51.53
2019-03-23T17:20:08.291Z,54.03
2019-03-23T17:22:37.450Z,49.85
2019-03-23T17:25:06.817Z,48.00
2019-03-23T17:27:36.031Z,54.77
2019-03-23T17:30:07.209Z,53.98
2019-03-23T17:32:39.213Z,58.13
2019-03-23T17:35:08.822Z,56.70
2019-03-23T17:37:38.090Z,57.95
2019-03-23T17:40:07.917Z,59.60
2019-03-23T17:42:37.086Z,58.40
2019-03-23T17:45:09.886Z,57.53
2019-03-23T17:47:39.311Z,56.15
2019-03-23T17:50:08.467Z,59.33
2019-03-23T17:52:40.663Z,65.40
2019-03-23T17:55:09.851Z,60.17
2019-03-23T17:57:39.127Z,58.68
2019-03-23T18:00:08.816Z,62.58
2019-03-23T18:02:38.244Z,58.50
2019-03-23T18:05:08.452Z,55.70
2019-03-23T18:07:37.781Z,60.10
2019-03-23T18:10:09.142Z,59.95
2019-03-23T18:12:38.535Z,60.23
2019-03-23T18:15:09.342Z,58.45
2019-03-23T18:17:38.567Z,61.58
2019-03-23T18:20:07.763Z,59.95
2019-03-23T18:22:36.987Z,61.05
2019-03-23T18:25:06.412Z,61.70
2019-03-23T18:27:35.615Z,66.35
2019-03-23T18:30:34.352Z,61.33
2019-03-23T18:33:04.723Z,63.98
2019-03-23T18:35:33.897Z,57.30
2019-03-23T18:38:03.325Z,64.30
2019-03-23T18:40:33.347Z,58.52
2019-03-23T18:43:02.531Z,61.65
2019-03-23T18:45:31.860Z,59.77
2019-03-23T18:48:01.120Z,67.05
2019-03-23T18:50:30.384Z,68.00
2019-03-23T18:52:59.803Z,79.55
2019-03-23T18:55:29.431Z,75.30
2019-03-23T18:57:59.170Z,67.60
2019-03-23T19:00:37.779Z,63.85
2019-03-23T19:03:07.188Z,63.73
2019-03-23T19:05:36.902Z,64.80
2019-03-23T19:08:06.291Z,66.95
2019-03-23T19:10:36.052Z,71.80
2019-03-23T19:13:06.243Z,73.60
2019-03-23T19:15:35.467Z,70.10
2019-03-23T19:18:04.706Z,70.87
2019-03-23T19:20:33.908Z,68.42
2019-03-23T19:23:03.073Z,65.83
2019-03-23T19:25:32.236Z,67.20
2019-03-23T19:28:01.453Z,68.05
2019-03-23T19:30:30.682Z,78.92
2019-03-23T19:33:00.124Z,76.45
2019-03-23T19:35:29.398Z,76.07
2019-03-23T19:37:59.129Z,71.22
2019-03-23T19:40:28.452Z,84.83
2019-03-23T19:42:59.563Z,74.27
2019-03-23T19:45:28.572Z,73.70
2019-03-23T19:47:57.739Z,69.17
2019-03-23T19:50:26.943Z,67.87
2019-03-23T19:52:56.168Z,63.35
2019-03-23T19:55:25.950Z,67.78
2019-03-23T19:57:55.118Z,62.67
2019-03-23T20:00:24.313Z,70.32
2019-03-23T20:02:53.550Z,65.87
2019-03-23T20:05:22.780Z,66.33
2019-03-23T20:07:52.089Z,65.05
2019-03-23T20:10:21.304Z,71.40
2019-03-23T20:12:50.556Z,66.40
2019-03-23T20:15:19.791Z,60.23
2019-03-23T20:17:48.995Z,63.78
2019-03-23T20:20:19.957Z,62.73
2019-03-23T20:22:49.548Z,60.98
2019-03-23T20:25:18.870Z,60.30
2019-03-23T20:27:48.019Z,65.50
2019-03-23T20:30:17.743Z,53.50
2019-03-23T20:32:47.095Z,57.30
2019-03-23T20:35:16.317Z,54.77
2019-03-23T20:37:45.484Z,52.85
2019-03-23T20:40:14.696Z,54.95
2019-03-23T20:42:44.061Z,52.15
2019-03-23T20:45:14.919Z,51.08
2019-03-23T20:47:44.256Z,53.02
2019-03-23T20:50:13.444Z,55.73
2019-03-23T20:52:42.683Z,55.25
2019-03-23T20:55:26.210Z,49.70
2019-03-23T20:57:55.552Z,52.38
2019-03-23T21:00:25.810Z,49.85
2019-03-23T21:02:55.076Z,43.50
2019-03-23T21:05:33.197Z,47.13
2019-03-23T21:07:55.353Z,49.83
2019-03-23T21:10:24.552Z,49.77
2019-03-23T21:12:53.807Z,46.70
2019-03-23T21:15:22.992Z,50.80
2019-03-23T21:17:52.301Z,43.68
2019-03-23T21:20:21.480Z,40.88
2019-03-23T21:22:50.696Z,44.08
2019-03-23T21:25:20.084Z,45.17
2019-03-23T21:27:49.350Z,41.68
2019-03-23T21:30:19.741Z,42.13
2019-03-23T21:32:49.010Z,41.02
2019-03-23T21:35:18.455Z,47.13
2019-03-23T21:37:47.715Z,42.93
2019-03-23T21:40:16.871Z,41.15
2019-03-23T21:42:46.095Z,45.05
2019-03-23T21:45:15.402Z,42.43
2019-03-23T21:47:44.546Z,43.95
2019-03-23T21:50:13.799Z,44.30
2019-03-23T21:52:42.951Z,40.52
2019-03-23T21:55:12.123Z,41.98
2019-03-23T21:57:41.442Z,44.25
2019-03-23T22:00:10.908Z,46.10
2019-03-23T22:02:40.773Z,42.15
2019-03-23T22:05:09.965Z,41.63
2019-03-23T22:07:39.156Z,43.23
2019-03-23T22:10:09.161Z,39.40
2019-03-23T22:12:38.399Z,47.70
2019-03-23T22:15:08.527Z,47.08
2019-03-23T22:17:37.706Z,54.13
2019-03-23T22:20:08.497Z,46.00
2019-03-23T22:22:37.749Z,46.42
2019-03-23T22:25:07.191Z,44.35
2019-03-23T22:27:37.290Z,47.27
2019-03-23T22:30:11.621Z,46.48
2019-03-23T22:32:40.873Z,44.75
2019-03-23T22:35:10.085Z,52.03
2019-03-23T22:37:39.341Z,46.83
2019-03-23T22:40:09.151Z,46.45
2019-03-23T22:42:38.403Z,46.15
2019-03-23T22:45:10.353Z,45.52
2019-03-23T22:47:39.619Z,44.10
2019-03-23T22:50:09.025Z,45.58
2019-03-23T22:52:38.203Z,46.05
2019-03-23T22:55:07.524Z,46.58
2019-03-23T22:57:36.703Z,47.20
2019-03-23T23:00:08.644Z,45.65
2019-03-23T23:02:37.994Z,46.00
2019-03-23T23:05:07.563Z,45.92
2019-03-23T23:07:36.807Z,47.43
2019-03-23T23:10:08.900Z,45.63
2019-03-23T23:12:38.083Z,44.10
2019-03-23T23:15:08.239Z,43.73
2019-03-23T23:17:37.488Z,42.50
2019-03-23T23:20:07.297Z,46.60
2019-03-23T23:22:38.080Z,46.95
2019-03-23T23:25:07.733Z,44.95
2019-03-23T23:27:37.285Z,50.75
2019-03-23T23:30:10.068Z,46.18
2019-03-23T23:32:39.390Z,45.45
2019-03-23T23:35:09.092Z,47.58
2019-03-23T23:37:38.274Z,44.20
2019-03-23T23:40:07.794Z,49.03
2019-03-23T23:42:36.952Z,57.20
2019-03-23T23:45:15.486Z,55.00
2019-03-23T23:47:38.920Z,49.03
2019-03-23T23:50:09.340Z,53.78
2019-03-23T23:52:38.581Z,46.35
2019-03-23T23:55:07.770Z,52.88
2019-03-23T23:57:37.028Z,50.60
